sensor_id;sensor_type;location;lat;lon;timestamp;pressure;altitude;pressure_sealevel;temperature
13304;BMP280;6720;51.958;4.540;2022-09-03T00:02:11;100946.50;;;19.43
13304;BMP280;6720;51.958;4.540;2022-09-03T00:04:39;100934.69;;;19.31
13304;BMP280;6720;51.958;4.540;2022-09-03T00:07:16;100934.56;;;19.34
13304;BMP280;6720;51.958;4.540;2022-09-03T00:09:47;100941.28;;;19.41
13304;BMP280;6720;51.958;4.540;2022-09-03T00:12:18;100931.97;;;19.33
13304;BMP280;6720;51.958;4.540;2022-09-03T00:14:50;100926.44;;;19.37
13304;BMP280;6720;51.958;4.540;2022-09-03T00:18:04;100933.75;;;19.15
13304;BMP280;6720;51.958;4.540;2022-09-03T00:20:44;100930.94;;;19.35
13304;BMP280;6720;51.958;4.540;2022-09-03T00:23:17;100923.41;;;19.28
13304;BMP280;6720;51.958;4.540;2022-09-03T00:28:28;100910.66;;;19.34
13304;BMP280;6720;51.958;4.540;2022-09-03T00:31:15;100915.91;;;19.36
13304;BMP280;6720;51.958;4.540;2022-09-03T00:33:44;100911.16;;;19.25
13304;BMP280;6720;51.958;4.540;2022-09-03T00:38:37;100915.63;;;19.23
13304;BMP280;6720;51.958;4.540;2022-09-03T00:41:07;100920.53;;;19.14
13304;BMP280;6720;51.958;4.540;2022-09-03T00:43:55;100919.38;;;19.19
13304;BMP280;6720;51.958;4.540;2022-09-03T00:51:51;100922.44;;;19.12
13304;BMP280;6720;51.958;4.540;2022-09-03T00:54:24;100922.25;;;19.15
13304;BMP280;6720;51.958;4.540;2022-09-03T01:10:37;100931.72;;;19.03
13304;BMP280;6720;51.958;4.540;2022-09-03T01:22:00;100927.34;;;19.02
13304;BMP280;6720;51.958;4.540;2022-09-03T01:32:28;100934.03;;;18.92
13304;BMP280;6720;51.958;4.540;2022-09-03T01:35:10;100932.25;;;18.93
13304;BMP280;6720;51.958;4.540;2022-09-03T01:40:36;100934.25;;;18.88
13304;BMP280;6720;51.958;4.540;2022-09-03T01:43:27;100934.03;;;18.92
13304;BMP280;6720;51.958;4.540;2022-09-03T01:46:12;100925.06;;;18.95
13304;BMP280;6720;51.958;4.540;2022-09-03T01:51:22;100928.09;;;18.87
13304;BMP280;6720;51.958;4.540;2022-09-03T01:54:19;100924.50;;;18.88
13304;BMP280;6720;51.958;4.540;2022-09-03T01:59:43;100921.22;;;18.83
13304;BMP280;6720;51.958;4.540;2022-09-03T02:07:24;100921.06;;;18.86
13304;BMP280;6720;51.958;4.540;2022-09-03T02:09:50;100911.66;;;18.62
13304;BMP280;6720;51.958;4.540;2022-09-03T02:12:16;100917.00;;;18.79
13304;BMP280;6720;51.958;4.540;2022-09-03T02:14:44;100911.06;;;18.74
13304;BMP280;6720;51.958;4.540;2022-09-03T02:17:10;100914.72;;;18.72
13304;BMP280;6720;51.958;4.540;2022-09-03T02:19:36;100913.44;;;18.62
13304;BMP280;6720;51.958;4.540;2022-09-03T02:22:02;100910.25;;;18.55
13304;BMP280;6720;51.958;4.540;2022-09-03T02:24:28;100911.81;;;18.59
13304;BMP280;6720;51.958;4.540;2022-09-03T02:26:53;100914.25;;;18.64
13304;BMP280;6720;51.958;4.540;2022-09-03T02:29:20;100913.84;;;18.54
13304;BMP280;6720;51.958;4.540;2022-09-03T02:31:45;100912.75;;;18.58
13304;BMP280;6720;51.958;4.540;2022-09-03T02:34:11;100906.97;;;18.50
13304;BMP280;6720;51.958;4.540;2022-09-03T02:36:42;100906.03;;;18.51
13304;BMP280;6720;51.958;4.540;2022-09-03T02:39:10;100905.53;;;18.43
13304;BMP280;6720;51.958;4.540;2022-09-03T02:41:35;100917.41;;;18.16
13304;BMP280;6720;51.958;4.540;2022-09-03T02:44:20;100915.41;;;18.21
13304;BMP280;6720;51.958;4.540;2022-09-03T02:46:54;100915.53;;;18.18
13304;BMP280;6720;51.958;4.540;2022-09-03T02:49:21;100914.25;;;18.08
13304;BMP280;6720;51.958;4.540;2022-09-03T02:51:46;100908.97;;;18.08
13304;BMP280;6720;51.958;4.540;2022-09-03T02:54:32;100904.81;;;18.02
13304;BMP280;6720;51.958;4.540;2022-09-03T02:57:22;100907.66;;;17.98
13304;BMP280;6720;51.958;4.540;2022-09-03T02:59:48;100898.06;;;17.95
13304;BMP280;6720;51.958;4.540;2022-09-03T03:02:13;100903.06;;;17.83
13304;BMP280;6720;51.958;4.540;2022-09-03T03:04:39;100906.47;;;17.85
13304;BMP280;6720;51.958;4.540;2022-09-03T03:07:05;100910.06;;;17.65
13304;BMP280;6720;51.958;4.540;2022-09-03T03:09:31;100905.97;;;17.77
13304;BMP280;6720;51.958;4.540;2022-09-03T03:11:56;100906.16;;;17.74
13304;BMP280;6720;51.958;4.540;2022-09-03T03:14:22;100905.59;;;17.66
13304;BMP280;6720;51.958;4.540;2022-09-03T03:16:48;100892.28;;;17.67
13304;BMP280;6720;51.958;4.540;2022-09-03T03:19:13;100905.91;;;17.60
13304;BMP280;6720;51.958;4.540;2022-09-03T03:21:39;100902.59;;;17.55
13304;BMP280;6720;51.958;4.540;2022-09-03T03:24:04;100899.78;;;17.38
13304;BMP280;6720;51.958;4.540;2022-09-03T03:26:30;100902.56;;;17.35
13304;BMP280;6720;51.958;4.540;2022-09-03T03:28:57;100899.13;;;17.33
13304;BMP280;6720;51.958;4.540;2022-09-03T03:31:23;100901.84;;;17.31
13304;BMP280;6720;51.958;4.540;2022-09-03T03:33:53;100898.97;;;17.36
13304;BMP280;6720;51.958;4.540;2022-09-03T03:36:19;100896.47;;;17.13
13304;BMP280;6720;51.958;4.540;2022-09-03T03:38:45;100890.13;;;17.17
13304;BMP280;6720;51.958;4.540;2022-09-03T03:41:15;100897.94;;;17.20
13304;BMP280;6720;51.958;4.540;2022-09-03T03:43:41;100900.28;;;17.06
13304;BMP280;6720;51.958;4.540;2022-09-03T03:46:07;100870.25;;;16.87
13304;BMP280;6720;51.958;4.540;2022-09-03T03:48:32;100899.41;;;17.07
13304;BMP280;6720;51.958;4.540;2022-09-03T03:51:02;100910.22;;;17.01
13304;BMP280;6720;51.958;4.540;2022-09-03T03:53:36;100903.88;;;17.05
13304;BMP280;6720;51.958;4.540;2022-09-03T03:56:04;100905.06;;;16.98
13304;BMP280;6720;51.958;4.540;2022-09-03T03:58:30;100909.69;;;17.13
13304;BMP280;6720;51.958;4.540;2022-09-03T04:01:06;100913.28;;;17.12
13304;BMP280;6720;51.958;4.540;2022-09-03T04:03:33;100906.41;;;17.08
13304;BMP280;6720;51.958;4.540;2022-09-03T04:05:59;100911.56;;;17.11
13304;BMP280;6720;51.958;4.540;2022-09-03T04:08:25;100903.22;;;17.00
13304;BMP280;6720;51.958;4.540;2022-09-03T04:10:51;100904.56;;;17.10
13304;BMP280;6720;51.958;4.540;2022-09-03T04:13:18;100906.16;;;17.14
13304;BMP280;6720;51.958;4.540;2022-09-03T04:15:43;100905.59;;;17.06
13304;BMP280;6720;51.958;4.540;2022-09-03T04:18:10;100904.34;;;16.94
13304;BMP280;6720;51.958;4.540;2022-09-03T04:20:35;100909.88;;;16.88
13304;BMP280;6720;51.958;4.540;2022-09-03T04:23:01;100910.75;;;16.89
13304;BMP280;6720;51.958;4.540;2022-09-03T04:25:27;100896.31;;;16.76
13304;BMP280;6720;51.958;4.540;2022-09-03T04:27:52;100896.97;;;16.81
13304;BMP280;6720;51.958;4.540;2022-09-03T04:30:18;100897.34;;;16.72
13304;BMP280;6720;51.958;4.540;2022-09-03T04:32:44;100896.97;;;16.81
13304;BMP280;6720;51.958;4.540;2022-09-03T04:35:23;100896.16;;;16.79
13304;BMP280;6720;51.958;4.540;2022-09-03T04:37:50;100887.56;;;16.74
13304;BMP280;6720;51.958;4.540;2022-09-03T04:40:17;100889.34;;;16.73
13304;BMP280;6720;51.958;4.540;2022-09-03T04:42:42;100887.03;;;16.66
13304;BMP280;6720;51.958;4.540;2022-09-03T04:45:08;100884.28;;;16.69
13304;BMP280;6720;51.958;4.540;2022-09-03T04:47:34;100893.53;;;16.57
13304;BMP280;6720;51.958;4.540;2022-09-03T04:50:02;100890.84;;;16.59
13304;BMP280;6720;51.958;4.540;2022-09-03T04:52:28;100892.69;;;16.57
13304;BMP280;6720;51.958;4.540;2022-09-03T04:54:56;100886.25;;;16.41
13304;BMP280;6720;51.958;4.540;2022-09-03T04:57:21;100886.53;;;16.56
13304;BMP280;6720;51.958;4.540;2022-09-03T04:59:47;100888.97;;;16.39
13304;BMP280;6720;51.958;4.540;2022-09-03T05:02:12;100896.94;;;16.38
13304;BMP280;6720;51.958;4.540;2022-09-03T05:04:39;100896.88;;;16.39
13304;BMP280;6720;51.958;4.540;2022-09-03T05:07:04;100896.75;;;16.44
13304;BMP280;6720;51.958;4.540;2022-09-03T05:09:29;100905.22;;;16.52
13304;BMP280;6720;51.958;4.540;2022-09-03T05:11:55;100904.63;;;16.45
13304;BMP280;6720;51.958;4.540;2022-09-03T05:14:20;100897.56;;;16.46
13304;BMP280;6720;51.958;4.540;2022-09-03T05:16:45;100896.09;;;16.37
13304;BMP280;6720;51.958;4.540;2022-09-03T05:19:11;100903.50;;;16.51
13304;BMP280;6720;51.958;4.540;2022-09-03T05:21:36;100906.81;;;16.56
13304;BMP280;6720;51.958;4.540;2022-09-03T05:24:03;100903.75;;;16.45
13304;BMP280;6720;51.958;4.540;2022-09-03T05:26:31;100895.03;;;16.43
13304;BMP280;6720;51.958;4.540;2022-09-03T05:29:01;100905.50;;;16.46
13304;BMP280;6720;51.958;4.540;2022-09-03T05:31:32;100896.63;;;16.47
13304;BMP280;6720;51.958;4.540;2022-09-03T05:34:01;100901.81;;;16.50
13304;BMP280;6720;51.958;4.540;2022-09-03T05:36:30;100897.88;;;16.37
13304;BMP280;6720;51.958;4.540;2022-09-03T05:38:57;100894.72;;;16.50
13304;BMP280;6720;51.958;4.540;2022-09-03T05:41:22;100899.31;;;16.45
13304;BMP280;6720;51.958;4.540;2022-09-03T05:43:49;100883.84;;;16.58
13304;BMP280;6720;51.958;4.540;2022-09-03T05:46:26;100904.72;;;16.64
13304;BMP280;6720;51.958;4.540;2022-09-03T05:48:56;100901.84;;;16.70
13304;BMP280;6720;51.958;4.540;2022-09-03T05:51:22;100900.38;;;16.63
13304;BMP280;6720;51.958;4.540;2022-09-03T05:53:48;100903.63;;;16.69
13304;BMP280;6720;51.958;4.540;2022-09-03T05:56:19;100902.38;;;16.78
13304;BMP280;6720;51.958;4.540;2022-09-03T05:58:50;100906.06;;;16.74
13304;BMP280;6720;51.958;4.540;2022-09-03T06:01:22;100899.91;;;16.73
13304;BMP280;6720;51.958;4.540;2022-09-03T06:03:53;100900.13;;;16.69
13304;BMP280;6720;51.958;4.540;2022-09-03T06:06:20;100905.84;;;16.80
13304;BMP280;6720;51.958;4.540;2022-09-03T06:08:53;100903.84;;;16.85
13304;BMP280;6720;51.958;4.540;2022-09-03T06:11:19;100913.78;;;16.80
13304;BMP280;6720;51.958;4.540;2022-09-03T06:13:45;100915.91;;;16.92
13304;BMP280;6720;51.958;4.540;2022-09-03T06:16:12;100915.91;;;16.92
13304;BMP280;6720;51.958;4.540;2022-09-03T06:18:37;100912.97;;;16.98
13304;BMP280;6720;51.958;4.540;2022-09-03T06:21:05;100912.09;;;16.99
13304;BMP280;6720;51.958;4.540;2022-09-03T06:23:32;100910.81;;;17.07
13304;BMP280;6720;51.958;4.540;2022-09-03T06:26:02;100912.88;;;17.01
13304;BMP280;6720;51.958;4.540;2022-09-03T06:28:27;100920.56;;;17.07
13304;BMP280;6720;51.958;4.540;2022-09-03T06:30:56;100916.56;;;17.17
13304;BMP280;6720;51.958;4.540;2022-09-03T06:33:22;100919.16;;;17.18
13304;BMP280;6720;51.958;4.540;2022-09-03T06:35:52;100918.03;;;17.24
13304;BMP280;6720;51.958;4.540;2022-09-03T06:38:21;100919.38;;;17.34
13304;BMP280;6720;51.958;4.540;2022-09-03T06:40:59;100915.78;;;17.35
13304;BMP280;6720;51.958;4.540;2022-09-03T06:43:26;100917.50;;;17.36
13304;BMP280;6720;51.958;4.540;2022-09-03T06:45:57;100915.78;;;17.35
13304;BMP280;6720;51.958;4.540;2022-09-03T06:48:23;100919.38;;;17.54
13304;BMP280;6720;51.958;4.540;2022-09-03T06:50:56;100922.47;;;17.63
13304;BMP280;6720;51.958;4.540;2022-09-03T06:53:24;100922.47;;;17.63
13304;BMP280;6720;51.958;4.540;2022-09-03T06:55:58;100925.63;;;17.53
13304;BMP280;6720;51.958;4.540;2022-09-03T06:58:27;100933.66;;;17.70
13304;BMP280;6720;51.958;4.540;2022-09-03T07:00:53;100917.63;;;17.73
13304;BMP280;6720;51.958;4.540;2022-09-03T07:03:19;100931.69;;;17.75
13304;BMP280;6720;51.958;4.540;2022-09-03T07:05:46;100916.94;;;17.88
13304;BMP280;6720;51.958;4.540;2022-09-03T07:08:13;100924.06;;;17.87
13304;BMP280;6720;51.958;4.540;2022-09-03T07:10:38;100933.28;;;17.97
13304;BMP280;6720;51.958;4.540;2022-09-03T07:13:04;100928.72;;;18.01
13304;BMP280;6720;51.958;4.540;2022-09-03T07:15:33;100938.09;;;18.08
13304;BMP280;6720;51.958;4.540;2022-09-03T07:17:58;100937.75;;;18.15
13304;BMP280;6720;51.958;4.540;2022-09-03T07:20:25;100928.59;;;18.23
13304;BMP280;6720;51.958;4.540;2022-09-03T07:22:54;100942.00;;;18.38
13304;BMP280;6720;51.958;4.540;2022-09-03T07:25:20;100938.63;;;18.53
13304;BMP280;6720;51.958;4.540;2022-09-03T07:27:46;100944.47;;;18.78
13304;BMP280;6720;51.958;4.540;2022-09-03T07:30:12;100938.66;;;19.06
13304;BMP280;6720;51.958;4.540;2022-09-03T07:32:38;100933.09;;;18.93
13304;BMP280;6720;51.958;4.540;2022-09-03T07:35:05;100931.06;;;18.98
13304;BMP280;6720;51.958;4.540;2022-09-03T07:37:31;100928.91;;;19.06
13304;BMP280;6720;51.958;4.540;2022-09-03T07:39:57;100938.59;;;19.24
13304;BMP280;6720;51.958;4.540;2022-09-03T07:42:23;100935.31;;;19.02
13304;BMP280;6720;51.958;4.540;2022-09-03T07:44:49;100932.34;;;19.42
13304;BMP280;6720;51.958;4.540;2022-09-03T07:47:14;100945.31;;;19.31
13304;BMP280;6720;51.958;4.540;2022-09-03T07:49:42;100934.44;;;19.53
13304;BMP280;6720;51.958;4.540;2022-09-03T07:52:07;100942.09;;;19.76
13304;BMP280;6720;51.958;4.540;2022-09-03T07:54:33;100948.88;;;19.81
13304;BMP280;6720;51.958;4.540;2022-09-03T07:56:58;100941.69;;;19.83
13304;BMP280;6720;51.958;4.540;2022-09-03T07:59:24;100940.09;;;19.96
13304;BMP280;6720;51.958;4.540;2022-09-03T08:01:50;100947.16;;;19.80
13304;BMP280;6720;51.958;4.540;2022-09-03T08:04:15;100949.94;;;20.11
13304;BMP280;6720;51.958;4.540;2022-09-03T08:06:41;100945.56;;;20.41
13304;BMP280;6720;51.958;4.540;2022-09-03T08:09:09;100956.66;;;20.49
13304;BMP280;6720;51.958;4.540;2022-09-03T08:11:38;100966.44;;;20.64
13304;BMP280;6720;51.958;4.540;2022-09-03T08:14:08;100963.41;;;20.70
13304;BMP280;6720;51.958;4.540;2022-09-03T08:16:37;100961.13;;;20.64
13304;BMP280;6720;51.958;4.540;2022-09-03T08:19:03;100963.13;;;20.90
13304;BMP280;6720;51.958;4.540;2022-09-03T08:21:29;100971.59;;;20.98
13304;BMP280;6720;51.958;4.540;2022-09-03T08:23:55;100969.16;;;20.78
13304;BMP280;6720;51.958;4.540;2022-09-03T08:26:33;100958.84;;;20.88
13304;BMP280;6720;51.958;4.540;2022-09-03T08:28:59;100971.78;;;20.95
13304;BMP280;6720;51.958;4.540;2022-09-03T08:31:25;100979.59;;;20.98
13304;BMP280;6720;51.958;4.540;2022-09-03T08:33:53;100968.47;;;21.21
13304;BMP280;6720;51.958;4.540;2022-09-03T08:36:23;100980.25;;;21.31
13304;BMP280;6720;51.958;4.540;2022-09-03T08:38:50;100974.31;;;21.12
13304;BMP280;6720;51.958;4.540;2022-09-03T08:49:04;100972.28;;;21.02
13304;BMP280;6720;51.958;4.540;2022-09-03T08:51:31;100968.75;;;21.01
13304;BMP280;6720;51.958;4.540;2022-09-03T08:53:58;100970.38;;;21.04
13304;BMP280;6720;51.958;4.540;2022-09-03T08:56:30;100981.03;;;21.04
13304;BMP280;6720;51.958;4.540;2022-09-03T08:58:55;100969.19;;;21.09
13304;BMP280;6720;51.958;4.540;2022-09-03T09:06:51;100976.47;;;21.35
13304;BMP280;6720;51.958;4.540;2022-09-03T09:09:29;100975.94;;;21.44
13304;BMP280;6720;51.958;4.540;2022-09-03T09:14:58;100992.81;;;21.59
13304;BMP280;6720;51.958;4.540;2022-09-03T09:20:44;100987.28;;;21.92
13304;BMP280;6720;51.958;4.540;2022-09-03T09:23:34;100985.09;;;22.12
13304;BMP280;6720;51.958;4.540;2022-09-03T09:26:06;100989.97;;;22.20
13304;BMP280;6720;51.958;4.540;2022-09-03T09:28:35;100984.63;;;22.34
13304;BMP280;6720;51.958;4.540;2022-09-03T09:31:03;100990.03;;;22.74
13304;BMP280;6720;51.958;4.540;2022-09-03T09:33:30;100989.94;;;23.02
13304;BMP280;6720;51.958;4.540;2022-09-03T09:35:59;100991.63;;;23.44
13304;BMP280;6720;51.958;4.540;2022-09-03T09:38:31;100993.38;;;23.70
13304;BMP280;6720;51.958;4.540;2022-09-03T09:41:17;100987.34;;;23.54
13304;BMP280;6720;51.958;4.540;2022-09-03T09:43:45;100995.78;;;24.12
13304;BMP280;6720;51.958;4.540;2022-09-03T09:46:21;100994.03;;;24.11
13304;BMP280;6720;51.958;4.540;2022-09-03T09:48:53;100998.50;;;24.97
13304;BMP280;6720;51.958;4.540;2022-09-03T09:53:47;100985.53;;;25.72
13304;BMP280;6720;51.958;4.540;2022-09-03T09:56:23;100990.53;;;26.00
13304;BMP280;6720;51.958;4.540;2022-09-03T09:58:49;100986.50;;;26.50
13304;BMP280;6720;51.958;4.540;2022-09-03T10:01:23;100989.28;;;26.48
13304;BMP280;6720;51.958;4.540;2022-09-03T10:03:58;100972.69;;;26.54
13304;BMP280;6720;51.958;4.540;2022-09-03T10:06:26;100985.09;;;26.99
13304;BMP280;6720;51.958;4.540;2022-09-03T10:09:13;100972.81;;;27.17
13304;BMP280;6720;51.958;4.540;2022-09-03T10:11:45;100975.25;;;27.93
13304;BMP280;6720;51.958;4.540;2022-09-03T10:14:33;100981.09;;;28.19
13304;BMP280;6720;51.958;4.540;2022-09-03T10:17:11;100972.69;;;27.92
13304;BMP280;6720;51.958;4.540;2022-09-03T10:19:49;100984.44;;;28.81
13304;BMP280;6720;51.958;4.540;2022-09-03T10:22:40;100982.50;;;28.92
13304;BMP280;6720;51.958;4.540;2022-09-03T10:25:11;100980.84;;;28.71
13304;BMP280;6720;51.958;4.540;2022-09-03T10:27:38;100981.97;;;29.17
13304;BMP280;6720;51.958;4.540;2022-09-03T10:30:04;100975.28;;;29.31
13304;BMP280;6720;51.958;4.540;2022-09-03T10:32:45;100981.69;;;29.30
13304;BMP280;6720;51.958;4.540;2022-09-03T10:35:36;100977.78;;;28.85
13304;BMP280;6720;51.958;4.540;2022-09-03T10:38:33;100981.16;;;28.08
13304;BMP280;6720;51.958;4.540;2022-09-03T10:44:17;100986.41;;;29.37
13304;BMP280;6720;51.958;4.540;2022-09-03T10:46:55;100978.00;;;29.12
13304;BMP280;6720;51.958;4.540;2022-09-03T10:52:10;100980.09;;;27.58
13304;BMP280;6720;51.958;4.540;2022-09-03T10:54:53;100976.88;;;29.43
13304;BMP280;6720;51.958;4.540;2022-09-03T10:57:26;100976.00;;;29.52
13304;BMP280;6720;51.958;4.540;2022-09-03T11:00:12;100978.69;;;30.36
13304;BMP280;6720;51.958;4.540;2022-09-03T11:05:20;100975.97;;;30.72
13304;BMP280;6720;51.958;4.540;2022-09-03T11:07:55;100973.16;;;31.09
13304;BMP280;6720;51.958;4.540;2022-09-03T11:10:32;100978.59;;;31.44
13304;BMP280;6720;51.958;4.540;2022-09-03T11:18:41;100983.59;;;30.23
13304;BMP280;6720;51.958;4.540;2022-09-03T11:21:11;100987.81;;;30.89
13304;BMP280;6720;51.958;4.540;2022-09-03T11:23:42;100983.66;;;30.67
13304;BMP280;6720;51.958;4.540;2022-09-03T11:26:14;100982.97;;;29.64
13304;BMP280;6720;51.958;4.540;2022-09-03T11:31:44;100979.34;;;30.47
13304;BMP280;6720;51.958;4.540;2022-09-03T11:36:39;100974.56;;;31.48
13304;BMP280;6720;51.958;4.540;2022-09-03T11:41:57;100974.50;;;31.40
13304;BMP280;6720;51.958;4.540;2022-09-03T11:44:23;100980.88;;;31.92
13304;BMP280;6720;51.958;4.540;2022-09-03T11:46:57;100981.97;;;31.46
13304;BMP280;6720;51.958;4.540;2022-09-03T11:49:30;100970.81;;;32.10
13304;BMP280;6720;51.958;4.540;2022-09-03T11:52:01;100979.09;;;32.67
13304;BMP280;6720;51.958;4.540;2022-09-03T11:54:31;100975.66;;;32.57
13304;BMP280;6720;51.958;4.540;2022-09-03T11:57:10;100978.56;;;33.29
13304;BMP280;6720;51.958;4.540;2022-09-03T11:59:36;100975.81;;;31.54
13304;BMP280;6720;51.958;4.540;2022-09-03T12:04:50;100968.13;;;33.42
13304;BMP280;6720;51.958;4.540;2022-09-03T12:18:24;100969.47;;;34.88
13304;BMP280;6720;51.958;4.540;2022-09-03T12:23:46;100976.66;;;34.73
13304;BMP280;6720;51.958;4.540;2022-09-03T12:26:21;100972.53;;;35.15
13304;BMP280;6720;51.958;4.540;2022-09-03T12:28:58;100968.69;;;35.32
13304;BMP280;6720;51.958;4.540;2022-09-03T12:31:29;100968.59;;;33.94
13304;BMP280;6720;51.958;4.540;2022-09-03T12:34:04;100968.34;;;32.99
13304;BMP280;6720;51.958;4.540;2022-09-03T12:36:38;100963.34;;;33.52
13304;BMP280;6720;51.958;4.540;2022-09-03T12:39:25;100958.94;;;33.35
13304;BMP280;6720;51.958;4.540;2022-09-03T12:42:05;100968.00;;;34.31
13304;BMP280;6720;51.958;4.540;2022-09-03T12:47:13;100961.97;;;33.64
13304;BMP280;6720;51.958;4.540;2022-09-03T12:49:45;100943.84;;;34.28
13304;BMP280;6720;51.958;4.540;2022-09-03T12:52:15;100955.88;;;34.80
13304;BMP280;6720;51.958;4.540;2022-09-03T12:54:47;100956.91;;;34.87
13304;BMP280;6720;51.958;4.540;2022-09-03T12:57:19;100962.50;;;33.84
13304;BMP280;6720;51.958;4.540;2022-09-03T12:59:47;100960.38;;;34.18
13304;BMP280;6720;51.958;4.540;2022-09-03T13:02:19;100964.66;;;34.05
13304;BMP280;6720;51.958;4.540;2022-09-03T13:04:46;100942.59;;;34.85
13304;BMP280;6720;51.958;4.540;2022-09-03T13:07:20;100953.84;;;35.72
13304;BMP280;6720;51.958;4.540;2022-09-03T13:09:48;100956.72;;;34.88
13304;BMP280;6720;51.958;4.540;2022-09-03T13:12:23;100955.97;;;35.47
13304;BMP280;6720;51.958;4.540;2022-09-03T13:14:52;100955.94;;;35.25
13304;BMP280;6720;51.958;4.540;2022-09-03T13:20:38;100953.50;;;33.43
13304;BMP280;6720;51.958;4.540;2022-09-03T13:22:55;100946.34;;;33.74
13304;BMP280;6720;51.958;4.540;2022-09-03T13:31:46;100948.44;;;35.04
13304;BMP280;6720;51.958;4.540;2022-09-03T13:34:29;100949.03;;;35.82
13304;BMP280;6720;51.958;4.540;2022-09-03T13:39:48;100953.66;;;34.53
13304;BMP280;6720;51.958;4.540;2022-09-03T13:47:51;100945.31;;;35.38
13304;BMP280;6720;51.958;4.540;2022-09-03T13:50:56;100949.59;;;36.21
13304;BMP280;6720;51.958;4.540;2022-09-03T13:53:43;100948.47;;;34.66
13304;BMP280;6720;51.958;4.540;2022-09-03T13:56:24;100941.97;;;34.44
13304;BMP280;6720;51.958;4.540;2022-09-03T13:59:04;100943.94;;;34.89
13304;BMP280;6720;51.958;4.540;2022-09-03T14:01:49;100948.38;;;33.24
13304;BMP280;6720;51.958;4.540;2022-09-03T14:04:23;100954.00;;;32.73
13304;BMP280;6720;51.958;4.540;2022-09-03T14:07:08;100941.84;;;34.22
13304;BMP280;6720;51.958;4.540;2022-09-03T14:12:38;100950.75;;;35.38
13304;BMP280;6720;51.958;4.540;2022-09-03T14:15:34;100949.91;;;35.15
13304;BMP280;6720;51.958;4.540;2022-09-03T14:23:58;100951.88;;;34.68
13304;BMP280;6720;51.958;4.540;2022-09-03T14:26:34;100951.97;;;35.58
13304;BMP280;6720;51.958;4.540;2022-09-03T14:34:57;100955.00;;;35.40
13304;BMP280;6720;51.958;4.540;2022-09-03T14:48:15;100951.69;;;35.30
13304;BMP280;6720;51.958;4.540;2022-09-03T14:59:33;100939.97;;;34.99
13304;BMP280;6720;51.958;4.540;2022-09-03T15:12:58;100944.94;;;34.11
13304;BMP280;6720;51.958;4.540;2022-09-03T15:15:31;100941.28;;;33.55
13304;BMP280;6720;51.958;4.540;2022-09-03T15:21:16;100946.50;;;33.17
13304;BMP280;6720;51.958;4.540;2022-09-03T15:24:06;100942.97;;;33.56
13304;BMP280;6720;51.958;4.540;2022-09-03T15:26:46;100946.72;;;33.55
13304;BMP280;6720;51.958;4.540;2022-09-03T15:32:22;100946.88;;;33.62
13304;BMP280;6720;51.958;4.540;2022-09-03T15:37:27;100943.31;;;33.69
13304;BMP280;6720;51.958;4.540;2022-09-03T15:40:23;100946.47;;;33.01
13304;BMP280;6720;51.958;4.540;2022-09-03T15:42:54;100943.66;;;33.34
13304;BMP280;6720;51.958;4.540;2022-09-03T15:45:33;100943.28;;;33.05
13304;BMP280;6720;51.958;4.540;2022-09-03T15:48:25;100951.91;;;32.59
13304;BMP280;6720;51.958;4.540;2022-09-03T15:51:08;100942.94;;;31.92
13304;BMP280;6720;51.958;4.540;2022-09-03T15:54:09;100945.34;;;31.95
13304;BMP280;6720;51.958;4.540;2022-09-03T15:56:44;100941.56;;;32.21
13304;BMP280;6720;51.958;4.540;2022-09-03T15:59:18;100952.53;;;31.43
13304;BMP280;6720;51.958;4.540;2022-09-03T16:07:24;100945.81;;;31.90
13304;BMP280;6720;51.958;4.540;2022-09-03T16:15:08;100957.22;;;32.02
13304;BMP280;6720;51.958;4.540;2022-09-03T16:17:54;100953.50;;;31.77
13304;BMP280;6720;51.958;4.540;2022-09-03T16:28:52;100938.91;;;31.53
13304;BMP280;6720;51.958;4.540;2022-09-03T16:31:31;100946.88;;;30.57
13304;BMP280;6720;51.958;4.540;2022-09-03T17:07:38;100937.41;;;29.23
13304;BMP280;6720;51.958;4.540;2022-09-03T17:13:53;100945.25;;;28.67
13304;BMP280;6720;51.958;4.540;2022-09-03T17:16:40;100951.78;;;28.65
13304;BMP280;6720;51.958;4.540;2022-09-03T17:19:31;100955.78;;;28.70
13304;BMP280;6720;51.958;4.540;2022-09-03T17:25:01;100955.28;;;28.26
13304;BMP280;6720;51.958;4.540;2022-09-03T17:27:48;100956.97;;;28.17
13304;BMP280;6720;51.958;4.540;2022-09-03T17:30:24;100962.84;;;28.02
13304;BMP280;6720;51.958;4.540;2022-09-03T17:35:42;100959.09;;;27.72
13304;BMP280;6720;51.958;4.540;2022-09-03T17:38:59;100966.28;;;27.62
13304;BMP280;6720;51.958;4.540;2022-09-03T17:41:33;100973.22;;;27.44
13304;BMP280;6720;51.958;4.540;2022-09-03T17:46:49;100973.53;;;27.19
13304;BMP280;6720;51.958;4.540;2022-09-03T17:49:42;100962.00;;;26.97
13304;BMP280;6720;51.958;4.540;2022-09-03T17:52:23;100965.22;;;26.80
13304;BMP280;6720;51.958;4.540;2022-09-03T17:54:53;100967.53;;;26.84
13304;BMP280;6720;51.958;4.540;2022-09-03T17:57:23;100967.72;;;26.61
13304;BMP280;6720;51.958;4.540;2022-09-03T17:59:58;100971.13;;;26.52
13304;BMP280;6720;51.958;4.540;2022-09-03T18:02:48;100969.19;;;26.32
13304;BMP280;6720;51.958;4.540;2022-09-03T18:11:10;100983.44;;;26.21
13304;BMP280;6720;51.958;4.540;2022-09-03T18:16:31;100994.63;;;25.93
13304;BMP280;6720;51.958;4.540;2022-09-03T18:21:53;100991.38;;;25.55
13304;BMP280;6720;51.958;4.540;2022-09-03T18:24:47;101009.19;;;25.67
13304;BMP280;6720;51.958;4.540;2022-09-03T18:27:44;101001.88;;;25.69
13304;BMP280;6720;51.958;4.540;2022-09-03T18:30:29;100997.44;;;25.57
13304;BMP280;6720;51.958;4.540;2022-09-03T18:33:17;101016.44;;;25.43
13304;BMP280;6720;51.958;4.540;2022-09-03T18:36:04;101017.66;;;25.50
13304;BMP280;6720;51.958;4.540;2022-09-03T18:38:48;101025.06;;;25.23
13304;BMP280;6720;51.958;4.540;2022-09-03T18:54:06;101052.41;;;24.92
13304;BMP280;6720;51.958;4.540;2022-09-03T18:56:55;101048.25;;;24.88
13304;BMP280;6720;51.958;4.540;2022-09-03T19:03:11;101048.38;;;24.74
13304;BMP280;6720;51.958;4.540;2022-09-03T19:06:04;101049.56;;;24.70
13304;BMP280;6720;51.958;4.540;2022-09-03T19:12:15;101057.59;;;24.57
13304;BMP280;6720;51.958;4.540;2022-09-03T19:15:08;101049.34;;;24.48
13304;BMP280;6720;51.958;4.540;2022-09-03T19:18:27;101061.69;;;24.38
13304;BMP280;6720;51.958;4.540;2022-09-03T19:24:32;101067.25;;;24.35
13304;BMP280;6720;51.958;4.540;2022-09-03T19:30:10;101058.47;;;24.08
13304;BMP280;6720;51.958;4.540;2022-09-03T19:36:29;101070.88;;;24.09